createdAt,value
2023-04-25T00:00:53.516Z,1.90
2023-04-25T00:01:55.116Z,2.13
2023-04-25T00:03:00.649Z,1.97
2023-04-25T00:04:05.839Z,2.20
2023-04-25T00:05:07.955Z,2.33
2023-04-25T00:06:09.783Z,1.80
2023-04-25T00:07:13.881Z,2.20
2023-04-25T00:08:15.791Z,2.27
2023-04-25T00:09:17.725Z,1.70
2023-04-25T00:10:20.036Z,1.90
2023-04-25T00:11:21.817Z,2.03
2023-04-25T00:12:23.840Z,2.63
2023-04-25T00:13:26.501Z,2.00
2023-04-25T00:14:29.314Z,2.33
2023-04-25T00:15:34.129Z,2.40
2023-04-25T00:16:36.536Z,2.10
2023-04-25T00:17:39.386Z,1.93
2023-04-25T00:18:42.070Z,2.17
2023-04-25T00:19:45.652Z,2.03
2023-04-25T00:20:47.630Z,2.10
2023-04-25T00:21:49.174Z,2.73
2023-04-25T00:22:50.925Z,1.87
2023-04-25T00:23:54.482Z,2.33
2023-04-25T00:24:58.181Z,1.97
2023-04-25T00:25:59.771Z,1.90
2023-04-25T00:27:01.250Z,1.87
2023-04-25T00:28:02.816Z,2.43
2023-04-25T00:29:04.400Z,2.10
2023-04-25T00:30:06.747Z,1.90
2023-04-25T00:31:08.535Z,1.80
2023-04-25T00:32:10.068Z,1.70
2023-04-25T00:33:14.451Z,2.63
2023-04-25T00:34:16.010Z,1.73
2023-04-25T00:35:18.034Z,1.60
2023-04-25T00:36:20.231Z,2.10
2023-04-25T00:37:22.410Z,1.67
2023-04-25T00:38:23.883Z,1.83
2023-04-25T00:39:25.306Z,1.90
2023-04-25T00:40:27.323Z,2.37
2023-04-25T00:41:28.842Z,2.33
2023-04-25T00:42:31.440Z,2.20
2023-04-25T00:43:33.872Z,2.00
2023-04-25T00:44:36.498Z,3.00
2023-04-25T00:45:40.278Z,2.80
2023-04-25T00:46:42.515Z,1.87
2023-04-25T00:47:44.956Z,2.00
2023-04-25T00:48:46.723Z,2.27
2023-04-25T00:49:48.318Z,1.83
2023-04-25T00:50:55.031Z,1.67
2023-04-25T00:51:57.425Z,2.13
2023-04-25T00:52:58.851Z,2.47
2023-04-25T00:54:01.018Z,2.70
2023-04-25T00:55:02.603Z,2.00
2023-04-25T00:56:04.277Z,2.47
2023-04-25T00:57:05.873Z,1.80
2023-04-25T00:58:07.338Z,2.00
2023-04-25T00:59:10.784Z,2.10
2023-04-25T01:00:15.150Z,2.40
2023-04-25T01:01:17.530Z,1.93
2023-04-25T01:02:20.686Z,2.17
2023-04-25T01:03:22.871Z,1.90
2023-04-25T01:04:24.754Z,2.27
2023-04-25T01:05:27.059Z,2.20
2023-04-25T01:06:29.363Z,2.10
2023-04-25T01:07:31.288Z,1.87
2023-04-25T01:08:32.805Z,2.07
2023-04-25T01:09:35.092Z,2.00
2023-04-25T01:10:37.041Z,1.70
2023-04-25T01:11:38.559Z,1.90
2023-04-25T01:12:40.658Z,2.37
2023-04-25T01:13:42.591Z,1.93
2023-04-25T01:14:44.318Z,2.20
2023-04-25T01:15:46.128Z,2.13
2023-04-25T01:16:47.906Z,2.07
2023-04-25T01:17:50.475Z,2.27
2023-04-25T01:18:52.744Z,1.63
2023-04-25T01:19:54.543Z,2.70
2023-04-25T01:20:56.699Z,2.17
2023-04-25T01:21:58.607Z,2.20
2023-04-25T01:23:03.035Z,1.93
2023-04-25T01:24:05.288Z,1.80
2023-04-25T01:25:08.541Z,1.70
2023-04-25T01:26:11.620Z,1.70
2023-04-25T01:27:13.892Z,1.90
2023-04-25T01:28:16.160Z,1.77
2023-04-25T01:29:38.031Z,1.90
2023-04-25T01:30:40.417Z,1.57
2023-04-25T01:31:43.824Z,1.80
2023-04-25T01:32:52.174Z,1.80
2023-04-25T01:33:53.738Z,2.00
2023-04-25T01:34:56.512Z,2.20
2023-04-25T01:35:58.072Z,2.37
2023-04-25T01:37:02.205Z,1.93
2023-04-25T01:38:04.033Z,2.23
2023-04-25T01:39:05.713Z,1.93
2023-04-25T01:40:09.106Z,2.10
2023-04-25T01:41:11.575Z,1.43
2023-04-25T01:42:14.252Z,2.00
2023-04-25T01:43:16.044Z,1.90
2023-04-25T01:44:17.656Z,1.90
2023-04-25T01:45:19.767Z,2.00
2023-04-25T01:46:21.516Z,1.60
2023-04-25T01:47:24.119Z,2.00
2023-04-25T01:48:26.012Z,1.63
2023-04-25T01:49:28.782Z,2.20
2023-04-25T01:50:30.486Z,2.03
2023-04-25T01:51:32.710Z,2.03
2023-04-25T01:52:34.500Z,2.60
2023-04-25T01:53:36.377Z,1.70
2023-04-25T01:54:39.460Z,1.80
2023-04-25T01:55:41.780Z,1.77
2023-04-25T01:56:52.119Z,1.67
2023-04-25T01:57:54.680Z,1.70
2023-04-25T01:59:02.762Z,1.80
2023-04-25T02:00:23.408Z,1.93
2023-04-25T02:01:24.949Z,1.80
2023-04-25T02:02:44.097Z,3.33
2023-04-25T02:04:07.215Z,2.00
2023-04-25T02:05:11.709Z,2.10
2023-04-25T02:06:14.941Z,1.73
2023-04-25T02:07:19.827Z,2.10
2023-04-25T02:08:27.862Z,2.47
2023-04-25T02:09:30.984Z,2.30
2023-04-25T02:10:33.269Z,1.80
2023-04-25T02:11:45.653Z,1.80
2023-04-25T02:13:03.693Z,1.83
2023-04-25T02:14:32.164Z,1.90
2023-04-25T02:15:59.762Z,2.20
2023-04-25T02:17:01.702Z,2.00
2023-04-25T02:18:07.458Z,2.23
2023-04-25T02:19:09.010Z,2.23
2023-04-25T02:20:11.214Z,1.97
2023-04-25T02:21:14.826Z,1.90
2023-04-25T02:22:17.982Z,1.80
2023-04-25T02:23:21.209Z,1.57
2023-04-25T02:24:22.601Z,1.80
2023-04-25T02:25:24.241Z,1.43
2023-04-25T02:26:26.025Z,1.57
2023-04-25T02:27:27.476Z,1.60
2023-04-25T02:28:28.909Z,2.00
2023-04-25T02:29:30.848Z,2.20
2023-04-25T02:30:32.333Z,1.87
2023-04-25T02:31:33.880Z,1.87
2023-04-25T02:32:36.040Z,2.10
2023-04-25T02:33:37.812Z,1.57
2023-04-25T02:34:41.211Z,1.70
2023-04-25T02:35:42.596Z,2.00
2023-04-25T02:36:44.132Z,2.00
2023-04-25T02:37:45.571Z,1.80
2023-04-25T02:38:48.727Z,3.00
2023-04-25T02:39:50.371Z,1.80
2023-04-25T02:40:52.156Z,1.93
2023-04-25T02:41:53.871Z,1.80
2023-04-25T02:42:56.825Z,1.87
2023-04-25T02:43:58.194Z,2.00
2023-04-25T02:44:59.815Z,1.77
2023-04-25T02:46:02.391Z,1.80
2023-04-25T02:47:03.904Z,1.47
2023-04-25T02:48:05.725Z,1.60
2023-04-25T02:49:08.088Z,2.30
2023-04-25T02:50:11.435Z,2.20
2023-04-25T02:51:17.232Z,2.23
2023-04-25T02:52:18.862Z,1.77
2023-04-25T02:53:26.807Z,1.70
2023-04-25T02:54:29.514Z,1.70
2023-04-25T02:55:31.840Z,2.03
2023-04-25T02:56:35.843Z,1.57
2023-04-25T02:57:38.061Z,1.83
2023-04-25T02:58:40.063Z,1.57
2023-04-25T02:59:41.680Z,1.93
2023-04-25T03:00:43.112Z,2.20
2023-04-25T03:01:45.029Z,1.80
2023-04-25T03:02:48.028Z,1.80
2023-04-25T03:03:50.047Z,1.93
2023-04-25T03:04:51.826Z,1.90
2023-04-25T03:05:53.589Z,1.63
2023-04-25T03:07:00.041Z,2.00
2023-04-25T03:08:01.683Z,2.20
2023-04-25T03:09:04.815Z,2.07
2023-04-25T03:10:08.060Z,2.00
2023-04-25T03:11:11.344Z,2.10
2023-04-25T03:12:13.325Z,2.33
2023-04-25T03:13:14.719Z,2.70
2023-04-25T03:14:19.644Z,1.60
2023-04-25T03:15:21.079Z,1.80
2023-04-25T03:16:23.288Z,1.80
2023-04-25T03:17:25.359Z,1.97
2023-04-25T03:18:27.095Z,1.80
2023-04-25T03:19:30.030Z,2.00
2023-04-25T03:20:31.658Z,1.93
2023-04-25T03:21:35.109Z,1.70
2023-04-25T03:22:37.280Z,1.97
2023-04-25T03:23:39.288Z,1.60
2023-04-25T03:24:42.587Z,1.43
2023-04-25T03:25:44.622Z,3.00
2023-04-25T03:26:48.294Z,1.73
2023-04-25T03:27:49.825Z,1.80
2023-04-25T03:28:51.370Z,1.60
2023-04-25T03:29:53.050Z,1.70
2023-04-25T03:30:55.426Z,1.87
2023-04-25T03:31:57.762Z,1.90
2023-04-25T03:33:00.443Z,1.87
2023-04-25T03:34:02.065Z,2.07
2023-04-25T03:35:04.201Z,1.80
2023-04-25T03:36:07.260Z,2.30
2023-04-25T03:37:08.823Z,2.13
2023-04-25T03:38:13.087Z,1.80
2023-04-25T03:39:15.752Z,1.80
2023-04-25T03:40:22.127Z,2.20
2023-04-25T03:41:55.979Z,1.67
2023-04-25T03:42:57.577Z,2.10
2023-04-25T03:43:59.655Z,2.20
2023-04-25T03:45:02.482Z,1.90
2023-04-25T03:46:05.431Z,1.87
2023-04-25T03:47:07.190Z,2.43
2023-04-25T03:48:09.324Z,2.00
2023-04-25T03:49:11.353Z,2.10
2023-04-25T03:50:31.073Z,2.37
2023-04-25T03:51:33.623Z,2.03
2023-04-25T03:52:37.274Z,2.33
2023-04-25T03:53:38.768Z,2.30
2023-04-25T03:54:49.580Z,1.80
2023-04-25T03:55:54.197Z,1.70
2023-04-25T03:56:55.605Z,1.97
2023-04-25T03:57:59.881Z,2.10
2023-04-25T03:59:02.256Z,1.90
2023-04-25T04:00:05.895Z,2.47
2023-04-25T04:01:15.109Z,2.00
2023-04-25T04:02:17.220Z,2.30
2023-04-25T04:03:18.862Z,2.60
2023-04-25T04:04:20.938Z,2.30
2023-04-25T04:05:23.459Z,2.20
2023-04-25T04:06:30.065Z,2.10
2023-04-25T04:07:41.022Z,1.83
2023-04-25T04:08:44.567Z,2.07
2023-04-25T04:09:46.606Z,2.10
2023-04-25T04:10:54.200Z,1.90
2023-04-25T04:11:55.892Z,2.03
2023-04-25T04:12:57.692Z,1.80
2023-04-25T04:13:59.788Z,2.10
2023-04-25T04:15:01.561Z,2.20
2023-04-25T04:16:05.301Z,1.83
2023-04-25T04:17:07.093Z,1.87
2023-04-25T04:18:08.883Z,2.67
2023-04-25T04:19:11.096Z,2.10
2023-04-25T04:20:15.161Z,1.93
2023-04-25T04:21:16.954Z,2.07
2023-04-25T04:22:18.501Z,1.93
2023-04-25T04:23:21.731Z,2.17
2023-04-25T04:24:23.537Z,1.80
2023-04-25T04:25:31.228Z,2.07
2023-04-25T04:26:40.583Z,2.37
2023-04-25T04:27:55.876Z,1.63
2023-04-25T04:29:12.719Z,2.07
2023-04-25T04:30:26.475Z,1.80
2023-04-25T04:31:33.637Z,2.30
2023-04-25T04:32:38.868Z,2.20
2023-04-25T04:33:41.383Z,2.03
2023-04-25T04:34:43.731Z,2.13
2023-04-25T04:35:47.919Z,1.97
2023-04-25T04:36:51.230Z,2.10
2023-04-25T04:37:52.737Z,1.90
2023-04-25T04:38:57.370Z,1.53
2023-04-25T04:40:10.904Z,2.10
2023-04-25T04:41:17.855Z,1.80
2023-04-25T04:42:30.245Z,1.90
2023-04-25T04:43:34.578Z,1.60
2023-04-25T04:45:05.066Z,1.83
2023-04-25T04:46:19.701Z,1.60
2023-04-25T04:47:53.735Z,2.00
2023-04-25T04:49:12.294Z,1.90
2023-04-25T04:50:34.996Z,2.00
2023-04-25T04:51:52.206Z,2.30
2023-04-25T04:53:13.635Z,2.30
2023-04-25T04:54:29.790Z,2.20
2023-04-25T04:55:53.984Z,2.23
2023-04-25T04:57:07.038Z,2.10
2023-04-25T04:58:29.364Z,2.40
2023-04-25T04:59:55.659Z,1.73
2023-04-25T05:01:17.541Z,2.37
2023-04-25T05:02:35.873Z,1.90
2023-04-25T05:04:07.087Z,1.97
2023-04-25T05:05:27.995Z,2.10
2023-04-25T05:06:49.110Z,2.30
2023-04-25T05:08:14.194Z,2.20
2023-04-25T05:09:26.785Z,2.37
2023-04-25T05:10:42.837Z,4.07
2023-04-25T05:12:09.175Z,1.80
2023-04-25T05:13:29.037Z,2.07
2023-04-25T05:14:47.321Z,2.00
2023-04-25T05:16:07.094Z,2.00
2023-04-25T05:17:27.177Z,2.00
2023-04-25T05:18:55.761Z,1.77
2023-04-25T05:20:16.211Z,2.33
2023-04-25T05:21:44.121Z,2.10
2023-04-25T05:23:03.843Z,2.70
2023-04-25T05:24:31.542Z,3.20
2023-04-25T05:25:58.277Z,2.93
2023-04-25T05:27:25.958Z,3.10
2023-04-25T05:28:54.378Z,3.53
2023-04-25T05:30:11.277Z,3.57
2023-04-25T05:31:33.648Z,3.60
2023-04-25T05:32:43.489Z,3.17
2023-04-25T05:33:45.249Z,3.00
2023-04-25T05:34:47.449Z,2.87
2023-04-25T05:35:58.162Z,3.50
2023-04-25T05:37:01.186Z,3.83
2023-04-25T05:38:02.984Z,3.17
2023-04-25T05:39:27.933Z,3.47
2023-04-25T05:40:47.856Z,3.30
2023-04-25T05:42:08.545Z,3.50
2023-04-25T05:43:28.847Z,3.80
2023-04-25T05:44:38.985Z,3.17
2023-04-25T05:45:55.034Z,3.40
2023-04-25T05:47:05.943Z,2.90
2023-04-25T05:48:25.847Z,3.87
2023-04-25T05:49:50.408Z,3.30
2023-04-25T05:51:02.668Z,3.50
2023-04-25T05:52:27.391Z,3.27
2023-04-25T05:53:52.097Z,3.70
2023-04-25T05:54:54.000Z,3.60
2023-04-25T05:55:55.529Z,4.20
2023-04-25T05:56:59.708Z,4.33
2023-04-25T05:58:01.553Z,3.57
2023-04-25T05:59:03.137Z,3.60
2023-04-25T06:00:09.885Z,3.87
2023-04-25T06:01:19.301Z,4.23
2023-04-25T06:02:22.579Z,3.70
2023-04-25T06:03:25.494Z,3.83
2023-04-25T06:04:27.391Z,3.83
2023-04-25T06:05:29.767Z,3.53
2023-04-25T06:06:32.708Z,3.77
2023-04-25T06:07:34.764Z,3.73
2023-04-25T06:08:38.749Z,3.70
2023-04-25T06:09:41.005Z,3.60
2023-04-25T06:10:42.490Z,3.70
2023-04-25T06:11:43.934Z,3.73
2023-04-25T06:12:45.833Z,3.70
2023-04-25T06:13:49.765Z,3.77
2023-04-25T06:14:52.306Z,3.73
2023-04-25T06:15:53.800Z,3.40
2023-04-25T06:16:55.729Z,3.47
2023-04-25T06:17:57.587Z,3.37
2023-04-25T06:18:59.153Z,3.60
2023-04-25T06:20:00.916Z,3.80
2023-04-25T06:21:02.340Z,3.97
2023-04-25T06:22:03.998Z,3.63
2023-04-25T06:23:07.491Z,3.50
2023-04-25T06:24:31.861Z,3.70
2023-04-25T06:25:33.294Z,4.20
2023-04-25T06:26:35.229Z,3.70
2023-04-25T06:27:36.696Z,3.80
2023-04-25T06:28:39.550Z,4.00
2023-04-25T06:29:41.192Z,4.00
2023-04-25T06:30:43.295Z,3.87
2023-04-25T06:31:48.647Z,3.50
2023-04-25T06:32:50.444Z,3.90
2023-04-25T06:33:52.026Z,3.80
2023-04-25T06:34:53.633Z,4.10
2023-04-25T06:35:57.629Z,4.70
2023-04-25T06:37:02.100Z,4.27
2023-04-25T06:38:03.857Z,4.43
2023-04-25T06:39:06.886Z,4.40
2023-04-25T06:40:09.226Z,4.30
2023-04-25T06:41:11.037Z,4.70
2023-04-25T06:42:12.902Z,4.07
2023-04-25T06:43:27.958Z,3.80
2023-04-25T06:44:52.830Z,4.50
2023-04-25T06:45:55.598Z,4.47
2023-04-25T06:46:58.472Z,4.10
2023-04-25T06:47:59.972Z,4.23
2023-04-25T06:49:01.653Z,3.60
2023-04-25T06:50:03.578Z,3.97
2023-04-25T06:51:06.326Z,3.83
2023-04-25T06:52:09.351Z,4.10
2023-04-25T06:53:12.466Z,3.97
2023-04-25T06:54:14.547Z,4.43
2023-04-25T06:55:28.099Z,4.00
2023-04-25T06:56:45.064Z,3.70
2023-04-25T06:57:49.074Z,4.10
2023-04-25T06:59:16.795Z,3.93
2023-04-25T07:00:21.174Z,4.03
2023-04-25T07:01:23.349Z,4.20
2023-04-25T07:02:25.078Z,3.70
2023-04-25T07:03:28.879Z,4.00
2023-04-25T07:04:35.200Z,3.87
2023-04-25T07:05:37.632Z,4.30
2023-04-25T07:06:43.511Z,4.03
2023-04-25T07:07:45.769Z,3.60
2023-04-25T07:08:47.469Z,4.00
2023-04-25T07:09:49.171Z,3.80
2023-04-25T07:10:51.309Z,3.73
2023-04-25T07:11:52.934Z,4.30
2023-04-25T07:12:55.559Z,4.63
2023-04-25T07:13:57.405Z,3.57
2023-04-25T07:14:58.844Z,4.17
2023-04-25T07:16:01.080Z,3.60
2023-04-25T07:17:04.719Z,4.57
2023-04-25T07:18:07.805Z,3.90
2023-04-25T07:19:09.333Z,4.13
2023-04-25T07:20:12.364Z,3.93
2023-04-25T07:21:14.489Z,3.63
2023-04-25T07:22:17.605Z,4.13
2023-04-25T07:23:19.215Z,3.93
2023-04-25T07:24:21.481Z,3.67
2023-04-25T07:25:23.940Z,3.60
2023-04-25T07:26:25.881Z,3.87
2023-04-25T07:27:53.573Z,3.80
2023-04-25T07:28:56.647Z,3.87
2023-04-25T07:30:00.209Z,3.80
2023-04-25T07:31:02.179Z,4.17
2023-04-25T07:32:04.047Z,3.83
2023-04-25T07:33:05.912Z,3.93
2023-04-25T07:34:08.560Z,4.13
2023-04-25T07:35:10.958Z,3.80
2023-04-25T07:36:13.506Z,3.40
2023-04-25T07:37:15.894Z,3.87
2023-04-25T07:38:31.909Z,4.70
2023-04-25T07:39:33.491Z,4.13
2023-04-25T07:40:36.358Z,4.23
2023-04-25T07:41:41.581Z,4.07
2023-04-25T07:42:47.079Z,3.93
2023-04-25T07:43:52.760Z,4.20
2023-04-25T07:44:55.370Z,4.03
2023-04-25T07:45:58.362Z,3.90
2023-04-25T07:47:04.569Z,3.80
2023-04-25T07:48:06.757Z,4.40
2023-04-25T07:49:11.583Z,3.97
2023-04-25T07:50:14.800Z,4.23
2023-04-25T07:51:16.733Z,4.30
2023-04-25T07:52:18.209Z,3.77
2023-04-25T07:53:25.700Z,4.30
2023-04-25T07:54:34.635Z,4.37
2023-04-25T07:55:42.684Z,4.30
2023-04-25T07:56:53.441Z,4.33
2023-04-25T07:57:58.890Z,4.33
2023-04-25T07:59:03.006Z,4.60
2023-04-25T08:00:09.879Z,4.70
2023-04-25T08:01:15.221Z,5.07
2023-04-25T08:02:29.657Z,3.80
2023-04-25T08:03:31.995Z,3.90
2023-04-25T08:04:34.297Z,4.23
2023-04-25T08:05:38.999Z,4.27
2023-04-25T08:06:41.755Z,4.53
2023-04-25T08:07:48.635Z,4.37
2023-04-25T08:08:50.472Z,4.00
2023-04-25T08:09:55.616Z,3.80
2023-04-25T08:11:01.687Z,4.10
2023-04-25T08:12:04.208Z,4.50
2023-04-25T08:13:07.740Z,3.70
2023-04-25T08:14:09.900Z,3.67
2023-04-25T08:15:14.702Z,4.10
2023-04-25T08:16:17.524Z,3.70
2023-04-25T08:17:19.138Z,3.80
2023-04-25T08:18:20.734Z,3.20
2023-04-25T08:19:24.096Z,4.17
2023-04-25T08:20:26.794Z,3.63
2023-04-25T08:21:31.601Z,3.60
2023-04-25T08:22:36.480Z,4.40
2023-04-25T08:24:07.254Z,3.43
2023-04-25T08:25:12.092Z,3.53
2023-04-25T08:26:14.915Z,3.87
2023-04-25T08:27:20.077Z,3.73
2023-04-25T08:28:21.584Z,3.90
2023-04-25T08:29:24.940Z,3.13
2023-04-25T08:30:26.591Z,4.23
2023-04-25T08:31:28.234Z,3.40
2023-04-25T08:32:35.639Z,3.33
2023-04-25T08:34:12.553Z,3.40
2023-04-25T08:35:18.900Z,3.40
2023-04-25T08:36:31.416Z,3.70
2023-04-25T08:37:37.414Z,3.10
2023-04-25T08:38:45.924Z,3.03
2023-04-25T08:39:53.480Z,3.53
2023-04-25T08:41:04.245Z,2.80
2023-04-25T08:42:11.165Z,3.20
2023-04-25T08:43:15.756Z,3.23
2023-04-25T08:44:17.727Z,3.43
2023-04-25T08:45:19.409Z,3.37
2023-04-25T08:46:21.089Z,3.70
2023-04-25T08:47:50.005Z,3.10
2023-04-25T08:48:58.017Z,3.30
2023-04-25T08:50:02.775Z,3.10
2023-04-25T08:52:15.729Z,3.40
2023-04-25T08:53:21.144Z,3.73
2023-04-25T08:54:34.567Z,3.70
2023-04-25T08:55:42.629Z,3.43
2023-04-25T08:56:47.865Z,3.77
2023-04-25T08:57:50.785Z,3.30
2023-04-25T08:58:52.898Z,2.83
2023-04-25T08:59:56.279Z,3.10
2023-04-25T09:00:59.034Z,3.23
2023-04-25T09:02:02.888Z,3.33
2023-04-25T09:03:06.393Z,3.00
2023-04-25T09:04:09.073Z,3.30
2023-04-25T09:05:13.323Z,2.90
2023-04-25T09:06:15.081Z,2.83
2023-04-25T09:07:19.614Z,3.47
2023-04-25T09:08:21.783Z,3.10
2023-04-25T09:09:24.354Z,2.90
2023-04-25T09:10:26.075Z,2.93
2023-04-25T09:11:29.085Z,2.63
2023-04-25T09:12:31.434Z,2.70
2023-04-25T09:13:33.584Z,3.00
2023-04-25T09:15:23.150Z,3.23
2023-04-25T09:16:58.491Z,2.57
2023-04-25T09:18:11.877Z,2.33
2023-04-25T09:19:39.023Z,2.20
2023-04-25T09:21:56.034Z,2.67
2023-04-25T09:23:08.102Z,2.57
2023-04-25T09:24:12.153Z,2.33
2023-04-25T09:25:17.217Z,2.43
2023-04-25T09:26:21.556Z,2.00
2023-04-25T09:27:26.069Z,2.10
2023-04-25T09:28:36.320Z,2.30
2023-04-25T09:29:40.479Z,3.23
2023-04-25T09:30:43.647Z,2.27
2023-04-25T09:32:13.061Z,2.00
2023-04-25T09:33:15.361Z,2.40
2023-04-25T09:34:21.814Z,2.70
2023-04-25T09:35:29.535Z,2.17
2023-04-25T09:36:35.969Z,2.13
2023-04-25T09:37:57.438Z,2.13
2023-04-25T09:39:23.188Z,2.10
2023-04-25T09:40:40.769Z,2.10
2023-04-25T09:41:48.698Z,2.30
2023-04-25T09:42:51.450Z,2.33
2023-04-25T09:43:57.627Z,2.53
2023-04-25T09:45:03.336Z,2.40
2023-04-25T09:46:12.409Z,1.97
2023-04-25T09:47:18.768Z,2.20
2023-04-25T09:48:22.402Z,2.30
2023-04-25T09:49:30.263Z,2.50
2023-04-25T09:50:44.689Z,1.93
2023-04-25T09:51:57.519Z,2.30
2023-04-25T09:53:06.460Z,2.80
2023-04-25T09:54:27.443Z,2.13
2023-04-25T09:55:45.334Z,2.00
2023-04-25T09:56:49.244Z,2.37
2023-04-25T09:57:52.078Z,2.00
2023-04-25T09:58:55.921Z,1.90
2023-04-25T09:59:57.437Z,2.33
2023-04-25T10:01:03.436Z,2.07
2023-04-25T10:02:15.835Z,2.20
2023-04-25T10:03:24.924Z,1.87
2023-04-25T10:04:38.676Z,2.20
2023-04-25T10:05:47.886Z,2.47
2023-04-25T10:06:51.468Z,2.00
2023-04-25T10:07:54.511Z,2.40
2023-04-25T10:08:57.008Z,2.17
2023-04-25T10:10:04.679Z,1.87
2023-04-25T10:11:09.899Z,2.53
2023-04-25T10:12:12.110Z,2.10
2023-04-25T10:13:15.488Z,2.30
2023-04-25T10:14:17.516Z,2.00
2023-04-25T10:15:19.737Z,2.20
2023-04-25T10:16:22.236Z,2.03
2023-04-25T10:17:24.379Z,1.87
2023-04-25T10:18:28.429Z,1.83
2023-04-25T10:19:30.662Z,2.00
2023-04-25T10:20:33.434Z,2.10
2023-04-25T10:21:36.028Z,1.97
2023-04-25T10:22:40.672Z,2.40
2023-04-25T10:23:43.244Z,2.10
2023-04-25T10:24:47.388Z,2.33
2023-04-25T10:25:50.636Z,1.70
2023-04-25T10:26:52.752Z,2.30
2023-04-25T10:27:55.305Z,2.20
2023-04-25T10:29:04.374Z,2.40
2023-04-25T10:30:17.707Z,2.10
2023-04-25T10:31:19.391Z,2.00
2023-04-25T10:32:20.982Z,2.20
2023-04-25T10:33:40.086Z,2.40
2023-04-25T10:34:43.844Z,2.20
2023-04-25T10:35:46.772Z,2.20
2023-04-25T10:36:56.576Z,2.00
2023-04-25T10:38:01.009Z,1.90
2023-04-25T10:39:12.829Z,2.00
2023-04-25T10:40:15.444Z,2.17
2023-04-25T10:41:19.713Z,1.80
2023-04-25T10:42:21.201Z,2.10
2023-04-25T10:43:36.139Z,2.13
2023-04-25T10:44:40.982Z,2.20
2023-04-25T10:45:53.088Z,2.13
2023-04-25T10:47:00.249Z,2.07
2023-04-25T10:48:02.598Z,2.00
2023-04-25T10:49:04.383Z,1.60
2023-04-25T10:50:07.447Z,2.10
2023-04-25T10:51:13.136Z,2.20
2023-04-25T10:52:23.254Z,1.83
2023-04-25T10:53:26.494Z,2.10
2023-04-25T10:54:28.104Z,2.20
2023-04-25T10:55:52.741Z,2.80
2023-04-25T10:56:54.679Z,2.30
2023-04-25T10:57:56.210Z,2.40
2023-04-25T10:59:10.826Z,1.90
2023-04-25T11:00:25.628Z,1.93
2023-04-25T11:01:45.234Z,2.00
2023-04-25T11:02:48.890Z,1.87
2023-04-25T11:03:51.875Z,1.60
2023-04-25T11:04:54.803Z,1.83
2023-04-25T11:05:58.448Z,1.93
2023-04-25T11:07:11.829Z,2.20
2023-04-25T11:08:18.902Z,2.37
2023-04-25T11:09:20.490Z,1.83
2023-04-25T11:10:30.194Z,2.00
2023-04-25T11:11:31.771Z,1.57
2023-04-25T11:12:33.592Z,2.27
2023-04-25T11:13:35.916Z,1.90
2023-04-25T11:14:37.583Z,2.30
2023-04-25T11:15:39.192Z,2.27
2023-04-25T11:16:40.861Z,2.37
2023-04-25T11:17:42.795Z,1.90
2023-04-25T11:18:45.300Z,2.00
2023-04-25T11:19:50.092Z,1.40
2023-04-25T11:20:51.729Z,1.60
2023-04-25T11:22:01.226Z,2.03
2023-04-25T11:24:09.430Z,2.00
2023-04-25T11:25:12.711Z,1.90
2023-04-25T11:26:15.075Z,2.00
2023-04-25T11:27:16.533Z,2.47
2023-04-25T11:28:26.751Z,2.00
2023-04-25T11:29:30.554Z,2.03
2023-04-25T11:30:32.154Z,2.10
2023-04-25T11:31:33.880Z,1.87
2023-04-25T11:32:35.596Z,2.00
2023-04-25T11:33:37.237Z,2.20
2023-04-25T11:34:38.704Z,1.93
2023-04-25T11:35:41.912Z,1.70
2023-04-25T11:36:43.423Z,2.10
2023-04-25T11:37:45.470Z,1.93
2023-04-25T11:38:47.235Z,2.10
2023-04-25T11:39:49.142Z,2.47
2023-04-25T11:40:52.633Z,2.10
2023-04-25T11:41:55.733Z,1.83
2023-04-25T11:42:57.094Z,2.37
2023-04-25T11:43:58.840Z,1.80
2023-04-25T11:45:01.489Z,1.97
2023-04-25T11:46:08.460Z,1.77
2023-04-25T11:47:10.229Z,2.30
2023-04-25T11:48:12.430Z,2.20
2023-04-25T11:49:15.097Z,2.00
2023-04-25T11:50:16.572Z,2.10
2023-04-25T11:51:18.329Z,2.03
2023-04-25T11:52:19.822Z,1.87
2023-04-25T11:53:21.520Z,2.10
2023-04-25T11:54:25.047Z,2.13
2023-04-25T11:55:27.597Z,2.10
2023-04-25T11:56:29.527Z,2.13
2023-04-25T11:57:32.938Z,2.10
2023-04-25T11:58:54.945Z,2.63
2023-04-25T11:59:56.670Z,2.40
2023-04-25T12:01:00.463Z,2.20
2023-04-25T12:02:02.844Z,2.47
2023-04-25T12:03:04.990Z,1.77
2023-04-25T12:04:14.090Z,1.83
2023-04-25T12:05:31.164Z,1.60
2023-04-25T12:06:41.307Z,2.00
2023-04-25T12:07:52.769Z,2.33
2023-04-25T12:09:10.696Z,2.83
2023-04-25T12:10:18.926Z,1.87
2023-04-25T12:11:26.364Z,1.90
2023-04-25T12:12:38.419Z,1.93
2023-04-25T12:13:52.862Z,1.70
2023-04-25T12:14:56.440Z,1.73
2023-04-25T12:16:02.087Z,1.60
2023-04-25T12:17:12.505Z,2.00
2023-04-25T12:18:32.437Z,2.43
2023-04-25T12:19:43.334Z,1.93
2023-04-25T12:20:54.715Z,1.80
2023-04-25T12:22:06.924Z,1.90
2023-04-25T12:23:16.529Z,2.00
2023-04-25T12:24:27.359Z,2.50
2023-04-25T12:25:41.686Z,2.00
2023-04-25T12:26:55.545Z,2.00
2023-04-25T12:28:15.201Z,2.60
2023-04-25T12:29:20.950Z,2.40
2023-04-25T12:30:25.133Z,2.00
2023-04-25T12:31:29.595Z,1.90
2023-04-25T12:32:33.460Z,2.10
2023-04-25T12:33:39.519Z,2.23
2023-04-25T12:34:44.637Z,1.93
2023-04-25T12:35:49.698Z,2.17
2023-04-25T12:36:56.044Z,1.77
2023-04-25T12:38:03.450Z,2.63
2023-04-25T12:39:22.366Z,2.20
2023-04-25T12:40:34.224Z,1.93
2023-04-25T12:41:37.868Z,2.47
2023-04-25T12:42:44.549Z,2.17
2023-04-25T12:43:48.056Z,2.20
2023-04-25T12:44:50.398Z,2.20
2023-04-25T12:45:56.556Z,3.30
2023-04-25T12:47:04.660Z,2.20
2023-04-25T12:48:07.754Z,2.43
2023-04-25T12:50:21.638Z,2.37
2023-04-25T12:51:29.724Z,2.17
2023-04-25T12:52:33.381Z,2.40
2023-04-25T12:53:42.399Z,2.03
2023-04-25T12:54:44.629Z,2.60
2023-04-25T12:55:47.920Z,2.40
2023-04-25T12:56:52.268Z,2.07
2023-04-25T12:57:54.567Z,2.10
2023-04-25T12:58:57.067Z,2.30
2023-04-25T12:59:58.797Z,2.40
2023-04-25T13:01:02.517Z,3.10
2023-04-25T13:02:04.308Z,2.20
2023-04-25T13:03:10.685Z,2.80
2023-04-25T13:04:13.425Z,2.10
2023-04-25T13:05:15.561Z,2.03
2023-04-25T13:06:18.237Z,2.40
2023-04-25T13:07:20.027Z,2.50
2023-04-25T13:08:21.761Z,2.03
2023-04-25T13:09:23.545Z,2.20
2023-04-25T13:10:26.123Z,2.10
2023-04-25T13:11:27.676Z,2.23
2023-04-25T13:12:29.900Z,2.23
2023-04-25T13:13:32.748Z,1.83
2023-04-25T13:14:35.194Z,2.20
2023-04-25T13:15:37.917Z,2.30
2023-04-25T13:16:39.527Z,2.20
2023-04-25T13:17:42.657Z,1.90
2023-04-25T13:18:44.809Z,2.30
2023-04-25T13:19:47.589Z,2.10
2023-04-25T13:20:49.496Z,2.20
2023-04-25T13:21:51.070Z,2.73
2023-04-25T13:22:52.873Z,2.13
2023-04-25T13:23:57.309Z,2.20
2023-04-25T13:25:09.874Z,2.40
2023-04-25T13:26:16.664Z,2.20
2023-04-25T13:27:24.143Z,2.30
2023-04-25T13:28:28.668Z,2.27
2023-04-25T13:29:36.929Z,2.10
2023-04-25T13:30:41.376Z,2.10
2023-04-25T13:31:45.162Z,2.30
2023-04-25T13:32:51.190Z,2.10
2023-04-25T13:33:59.476Z,2.00
2023-04-25T13:35:12.262Z,2.17
2023-04-25T13:36:17.558Z,1.77
2023-04-25T13:37:21.821Z,2.07
2023-04-25T13:38:30.662Z,2.00
2023-04-25T13:39:43.483Z,1.80
2023-04-25T13:40:51.629Z,1.90
2023-04-25T13:41:56.566Z,2.13
2023-04-25T13:43:00.550Z,1.83
2023-04-25T13:44:07.984Z,1.70
2023-04-25T13:45:11.890Z,1.80
2023-04-25T13:46:35.471Z,2.00
2023-04-25T13:47:39.926Z,1.50
2023-04-25T13:48:49.696Z,1.90
2023-04-25T13:49:57.420Z,1.90
2023-04-25T13:51:03.474Z,1.80
2023-04-25T13:52:07.678Z,1.60
2023-04-25T13:53:12.674Z,1.80
2023-04-25T13:54:15.789Z,1.70
2023-04-25T13:55:24.092Z,1.40
2023-04-25T13:56:30.169Z,1.70
2023-04-25T13:57:41.343Z,1.87
2023-04-25T13:58:50.873Z,1.90
2023-04-25T14:00:08.868Z,1.77
2023-04-25T14:01:18.226Z,1.93
2023-04-25T14:02:23.363Z,1.70
2023-04-25T14:03:34.016Z,1.70
2023-04-25T14:04:46.532Z,1.53
2023-04-25T14:05:52.944Z,1.57
2023-04-25T14:06:57.681Z,1.90
2023-04-25T14:08:03.489Z,1.60
2023-04-25T14:09:16.238Z,1.80
2023-04-25T14:10:25.632Z,1.70
2023-04-25T14:11:35.171Z,1.53
2023-04-25T14:12:40.491Z,1.30
2023-04-25T14:13:46.928Z,1.70
2023-04-25T14:14:54.926Z,1.57
2023-04-25T14:15:59.487Z,1.70
2023-04-25T14:17:02.104Z,1.93
2023-04-25T14:18:08.442Z,1.90
2023-04-25T14:19:13.379Z,1.60
2023-04-25T14:20:22.192Z,1.80
2023-04-25T14:21:27.458Z,1.93
2023-04-25T14:22:33.749Z,1.50
2023-04-25T14:23:41.073Z,1.50
2023-04-25T14:24:45.450Z,1.53
2023-04-25T14:25:51.728Z,1.67
2023-04-25T14:27:00.906Z,2.00
2023-04-25T14:28:05.731Z,1.80
2023-04-25T14:29:09.726Z,1.73
2023-04-25T14:30:13.527Z,1.73
2023-04-25T14:31:18.817Z,1.90
2023-04-25T14:32:25.179Z,2.10
2023-04-25T14:33:28.955Z,2.17
2023-04-25T14:34:32.052Z,1.60
2023-04-25T14:35:36.158Z,1.60
2023-04-25T14:36:42.321Z,1.80
2023-04-25T14:37:45.959Z,1.90
2023-04-25T14:38:49.850Z,1.80
2023-04-25T14:39:52.009Z,1.70
2023-04-25T14:40:55.033Z,1.40
2023-04-25T14:41:57.093Z,1.70
2023-04-25T14:42:58.684Z,2.00
2023-04-25T14:44:00.785Z,1.80